createdAt,value
2023-03-30T00:01:05.606Z,3.00
2023-03-30T00:03:33.528Z,2.85
2023-03-30T00:06:05.255Z,2.60
2023-03-30T00:08:33.339Z,2.40
2023-03-30T00:13:28.903Z,3.03
2023-03-30T00:15:58.884Z,2.55
2023-03-30T00:18:29.906Z,2.88
2023-03-30T00:20:58.672Z,2.80
2023-03-30T00:23:26.215Z,2.92
2023-03-30T00:25:54.940Z,3.10
2023-03-30T00:28:25.116Z,3.20
2023-03-30T00:30:53.496Z,2.83
2023-03-30T00:33:33.586Z,2.90
2023-03-30T00:36:06.712Z,2.42
2023-03-30T00:38:35.900Z,2.58
2023-03-30T00:41:04.771Z,2.42
2023-03-30T00:43:33.274Z,2.42
2023-03-30T00:45:59.849Z,2.50
2023-03-30T00:48:31.648Z,2.42
2023-03-30T00:51:07.511Z,2.20
2023-03-30T00:53:38.766Z,3.13
2023-03-30T00:56:07.795Z,3.00
2023-03-30T00:58:41.425Z,2.97
2023-03-30T01:01:13.846Z,2.53
2023-03-30T01:03:45.715Z,2.60
2023-03-30T01:06:12.995Z,2.45
2023-03-30T01:08:44.676Z,2.45
2023-03-30T01:11:13.429Z,2.40
2023-03-30T01:13:51.021Z,2.50
2023-03-30T01:16:39.203Z,2.50
2023-03-30T01:19:23.653Z,2.45
2023-03-30T01:22:17.957Z,2.20
2023-03-30T01:25:05.908Z,2.20
2023-03-30T01:27:49.304Z,2.00
2023-03-30T01:30:34.566Z,1.85
2023-03-30T01:33:29.232Z,2.00
2023-03-30T01:36:23.787Z,1.90
2023-03-30T01:39:18.086Z,2.13
2023-03-30T01:42:05.701Z,1.98
2023-03-30T01:44:48.651Z,2.50
2023-03-30T01:47:55.682Z,2.22
2023-03-30T01:50:31.633Z,1.95
2023-03-30T01:53:16.947Z,2.05
2023-03-30T01:55:58.484Z,2.33
2023-03-30T01:58:57.066Z,2.50
2023-03-30T02:01:26.841Z,2.28
2023-03-30T02:03:58.026Z,2.28
2023-03-30T02:06:39.974Z,2.38
2023-03-30T02:09:09.985Z,2.15
2023-03-30T02:11:42.333Z,2.10
2023-03-30T02:14:12.239Z,2.40
2023-03-30T02:16:48.445Z,2.22
2023-03-30T02:19:15.696Z,2.20
2023-03-30T02:21:43.249Z,2.13
2023-03-30T02:24:20.386Z,2.08
2023-03-30T02:26:51.658Z,1.90
2023-03-30T02:29:20.344Z,2.00
2023-03-30T02:31:49.763Z,2.13
2023-03-30T02:34:19.221Z,2.30
2023-03-30T02:36:51.428Z,2.08
2023-03-30T02:39:51.421Z,1.85
2023-03-30T02:42:33.148Z,2.15
2023-03-30T02:45:13.409Z,2.22
2023-03-30T02:48:06.386Z,2.08
2023-03-30T02:51:02.062Z,1.95
2023-03-30T02:53:42.319Z,2.10
2023-03-30T02:56:34.003Z,1.80
2023-03-30T02:59:14.582Z,1.80
2023-03-30T03:01:53.479Z,1.83
2023-03-30T03:04:22.940Z,1.92
2023-03-30T03:06:52.942Z,1.50
2023-03-30T03:09:20.504Z,1.50
2023-03-30T03:11:47.344Z,1.33
2023-03-30T03:14:13.928Z,1.88
2023-03-30T03:16:40.871Z,1.77
2023-03-30T03:19:10.190Z,1.60
2023-03-30T03:21:36.869Z,2.10
2023-03-30T03:24:04.823Z,2.00
2023-03-30T03:29:03.527Z,1.25
2023-03-30T03:31:32.300Z,1.30
2023-03-30T03:34:01.675Z,1.55
2023-03-30T03:36:28.457Z,1.17
2023-03-30T03:38:59.834Z,1.52
2023-03-30T03:41:26.400Z,1.30
2023-03-30T03:43:52.995Z,1.48
2023-03-30T03:46:19.871Z,1.30
2023-03-30T03:48:46.556Z,1.35
2023-03-30T03:51:13.075Z,1.23
2023-03-30T03:53:39.518Z,1.20
2023-03-30T03:56:06.297Z,1.45
2023-03-30T03:58:32.817Z,1.20
2023-03-30T04:01:00.916Z,1.25
2023-03-30T04:03:28.194Z,1.15
2023-03-30T04:05:58.214Z,1.27
2023-03-30T04:08:28.573Z,0.93
2023-03-30T04:10:55.110Z,1.10
2023-03-30T04:13:21.750Z,1.30
2023-03-30T04:15:48.286Z,1.20
2023-03-30T04:18:15.474Z,1.20
2023-03-30T04:20:44.670Z,1.10
2023-03-30T04:23:16.384Z,0.73
2023-03-30T04:25:42.916Z,1.05
2023-03-30T04:28:12.740Z,1.02
2023-03-30T04:30:41.488Z,1.45
2023-03-30T04:33:09.727Z,1.30
2023-03-30T04:35:38.856Z,1.30
2023-03-30T04:38:06.157Z,1.10
2023-03-30T04:40:35.068Z,1.52
2023-03-30T04:43:02.715Z,1.00
2023-03-30T04:45:36.899Z,1.10
2023-03-30T04:48:06.290Z,1.25
2023-03-30T04:50:32.753Z,1.33
2023-03-30T04:52:59.258Z,1.35
2023-03-30T04:55:25.733Z,1.20
2023-03-30T04:57:52.256Z,1.20
2023-03-30T05:00:19.365Z,1.40
2023-03-30T05:02:45.950Z,1.10
2023-03-30T05:05:12.475Z,1.40
2023-03-30T05:07:39.177Z,1.13
2023-03-30T05:10:10.480Z,1.48
2023-03-30T05:12:36.968Z,1.58
2023-03-30T05:15:04.011Z,1.25
2023-03-30T05:17:34.974Z,1.48
2023-03-30T05:20:08.668Z,1.63
2023-03-30T05:22:39.998Z,1.30
2023-03-30T05:25:07.254Z,1.83
2023-03-30T05:27:34.080Z,1.45
2023-03-30T05:30:00.681Z,1.27
2023-03-30T05:32:27.679Z,1.88
2023-03-30T05:34:54.519Z,1.80
2023-03-30T05:37:21.509Z,1.92
2023-03-30T05:39:48.458Z,2.17
2023-03-30T05:42:14.918Z,1.80
2023-03-30T05:44:41.626Z,1.90
2023-03-30T05:47:08.153Z,2.60
2023-03-30T05:49:34.621Z,2.10
2023-03-30T05:52:01.228Z,1.42
2023-03-30T05:54:30.247Z,1.83
2023-03-30T05:56:59.125Z,1.35
2023-03-30T05:59:25.958Z,1.85
2023-03-30T06:01:57.191Z,1.45
2023-03-30T06:04:24.151Z,1.45
2023-03-30T06:06:55.746Z,1.65
2023-03-30T06:09:24.072Z,2.20
2023-03-30T06:11:53.104Z,2.30
2023-03-30T06:14:19.600Z,2.03
2023-03-30T06:16:48.373Z,2.03
2023-03-30T06:19:14.901Z,1.90
2023-03-30T06:21:41.486Z,2.03
2023-03-30T06:24:07.937Z,1.88
2023-03-30T06:26:34.464Z,1.80
2023-03-30T06:29:01.157Z,1.95
2023-03-30T06:31:29.969Z,2.95
2023-03-30T06:33:59.016Z,2.10
2023-03-30T06:36:44.422Z,2.00
2023-03-30T06:39:12.532Z,2.30
2023-03-30T06:41:43.507Z,1.83
2023-03-30T06:44:15.033Z,2.30
2023-03-30T06:46:42.403Z,1.58
2023-03-30T06:49:11.107Z,1.80
2023-03-30T06:51:37.889Z,2.17
2023-03-30T06:54:07.017Z,1.88
2023-03-30T06:56:33.505Z,2.55
2023-03-30T06:59:00.208Z,2.08
2023-03-30T07:01:29.239Z,2.17
2023-03-30T07:03:58.422Z,2.22
2023-03-30T07:06:25.008Z,3.35
2023-03-30T07:08:51.740Z,2.58
2023-03-30T07:11:18.255Z,2.42
2023-03-30T07:13:44.689Z,2.03
2023-03-30T07:16:11.355Z,2.03
2023-03-30T07:18:40.022Z,2.40
2023-03-30T07:21:07.177Z,2.40
2023-03-30T07:23:36.153Z,3.00
2023-03-30T07:26:02.892Z,2.53
2023-03-30T07:28:29.853Z,2.35
2023-03-30T07:31:10.382Z,2.45
2023-03-30T07:33:39.790Z,2.08
2023-03-30T07:36:07.253Z,3.08
2023-03-30T07:38:36.318Z,2.95
2023-03-30T07:41:10.446Z,2.67
2023-03-30T07:43:42.417Z,2.47
2023-03-30T07:46:11.921Z,2.70
2023-03-30T07:48:43.524Z,2.40
2023-03-30T07:51:13.694Z,2.78
2023-03-30T07:53:43.144Z,2.85
2023-03-30T07:56:10.600Z,2.75
2023-03-30T07:58:40.539Z,2.05
2023-03-30T08:01:09.458Z,2.55
2023-03-30T08:03:37.084Z,3.20
2023-03-30T08:06:06.840Z,2.67
2023-03-30T08:08:34.482Z,2.97
2023-03-30T08:11:01.197Z,3.05
2023-03-30T08:13:30.653Z,3.20
2023-03-30T08:15:57.158Z,2.25
2023-03-30T08:18:25.112Z,2.67
2023-03-30T08:20:53.694Z,3.03
2023-03-30T08:23:21.540Z,2.47
2023-03-30T08:25:52.422Z,2.90
2023-03-30T08:28:20.251Z,2.10
2023-03-30T08:30:47.548Z,2.78
2023-03-30T08:33:16.020Z,2.72
2023-03-30T08:35:49.582Z,3.20
2023-03-30T08:38:21.445Z,3.17
2023-03-30T08:40:50.059Z,3.15
2023-03-30T08:43:27.770Z,3.10
2023-03-30T08:45:54.826Z,3.45
2023-03-30T08:48:25.088Z,2.72
2023-03-30T08:50:59.399Z,3.35
2023-03-30T08:53:28.626Z,2.90
2023-03-30T08:56:10.064Z,2.38
2023-03-30T08:58:41.832Z,2.97
2023-03-30T09:01:16.519Z,2.90
2023-03-30T09:04:02.181Z,2.75
2023-03-30T09:06:56.526Z,2.47
2023-03-30T09:09:29.111Z,2.55
2023-03-30T09:12:05.773Z,3.10
2023-03-30T09:14:37.357Z,2.88
2023-03-30T09:17:12.107Z,3.03
2023-03-30T09:19:50.472Z,2.88
2023-03-30T09:22:22.737Z,2.78
2023-03-30T09:24:52.534Z,3.50
2023-03-30T09:27:52.918Z,2.97
2023-03-30T09:30:23.186Z,2.65
2023-03-30T09:33:02.468Z,3.35
2023-03-30T09:35:42.262Z,3.55
2023-03-30T09:38:13.503Z,2.90
2023-03-30T09:41:07.321Z,3.00
2023-03-30T09:43:44.258Z,3.28
2023-03-30T09:46:11.274Z,2.97
2023-03-30T09:48:44.794Z,2.83
2023-03-30T09:51:27.892Z,3.40
2023-03-30T09:54:06.223Z,3.15
2023-03-30T09:56:45.090Z,3.80
2023-03-30T09:59:34.095Z,3.42
2023-03-30T10:02:13.032Z,3.50
2023-03-30T10:04:52.562Z,3.08
2023-03-30T10:07:27.867Z,3.00
2023-03-30T10:09:55.726Z,4.10
2023-03-30T10:15:01.247Z,3.35
2023-03-30T10:17:28.997Z,3.28
2023-03-30T10:20:14.610Z,3.28
2023-03-30T10:23:06.296Z,3.33
2023-03-30T10:25:36.037Z,3.22
2023-03-30T10:28:05.198Z,2.92
2023-03-30T10:30:33.165Z,3.30
2023-03-30T10:35:36.020Z,3.25
2023-03-30T10:38:05.203Z,3.85
2023-03-30T10:40:39.154Z,3.25
2023-03-30T10:43:12.948Z,4.03
2023-03-30T10:45:52.757Z,3.08
2023-03-30T10:48:28.199Z,3.65
2023-03-30T10:51:31.747Z,4.05
2023-03-30T10:54:22.399Z,3.30
2023-03-30T10:56:56.308Z,3.92
2023-03-30T10:59:41.745Z,4.38
2023-03-30T11:02:27.974Z,3.72
2023-03-30T11:05:15.747Z,3.63
2023-03-30T11:07:45.092Z,3.90
2023-03-30T11:10:21.327Z,3.70
2023-03-30T11:13:02.780Z,3.00
2023-03-30T11:15:42.055Z,3.45
2023-03-30T11:18:36.306Z,3.47
2023-03-30T11:21:21.807Z,3.50
2023-03-30T11:23:50.945Z,3.55
2023-03-30T11:26:29.784Z,3.28
2023-03-30T11:29:21.822Z,2.90
2023-03-30T11:32:29.495Z,3.28
2023-03-30T11:35:07.062Z,3.92
2023-03-30T11:38:01.965Z,3.33
2023-03-30T11:40:38.893Z,3.45
2023-03-30T11:43:05.398Z,3.43
2023-03-30T11:46:06.198Z,3.17
2023-03-30T11:48:44.170Z,3.13
2023-03-30T11:51:32.734Z,3.03
2023-03-30T11:54:17.235Z,3.50
2023-03-30T11:57:14.005Z,3.28
2023-03-30T11:59:56.468Z,2.63
2023-03-30T12:02:46.711Z,3.85
2023-03-30T12:05:29.205Z,3.47
2023-03-30T12:08:24.256Z,3.17
2023-03-30T12:10:59.792Z,3.70
2023-03-30T12:13:32.010Z,3.10
2023-03-30T12:16:10.013Z,3.20
2023-03-30T12:19:08.217Z,3.58
2023-03-30T12:21:52.224Z,3.13
2023-03-30T12:24:36.331Z,4.00
2023-03-30T12:27:07.061Z,3.08
2023-03-30T12:30:02.466Z,3.85
2023-03-30T12:32:30.448Z,3.25
2023-03-30T12:34:59.500Z,3.87
2023-03-30T12:37:35.419Z,3.35
2023-03-30T12:40:22.448Z,4.13
2023-03-30T12:43:00.797Z,3.38
2023-03-30T12:45:33.137Z,3.20
2023-03-30T12:48:27.489Z,3.45
2023-03-30T12:51:47.782Z,3.55
2023-03-30T12:54:41.527Z,4.07
2023-03-30T12:57:11.132Z,4.10
2023-03-30T13:00:21.983Z,4.13
2023-03-30T13:03:00.201Z,2.97
2023-03-30T13:05:42.726Z,3.17
2023-03-30T13:08:22.549Z,2.90
2023-03-30T13:10:49.162Z,3.22
2023-03-30T13:13:24.125Z,3.42
2023-03-30T13:15:54.864Z,4.57
2023-03-30T13:18:24.295Z,3.15
2023-03-30T13:20:53.120Z,3.22
2023-03-30T13:23:19.875Z,3.60
2023-03-30T13:25:51.681Z,3.22
2023-03-30T13:28:52.890Z,3.40
2023-03-30T13:31:37.643Z,2.70
2023-03-30T13:34:24.259Z,4.05
2023-03-30T13:37:30.212Z,3.97
2023-03-30T13:39:58.931Z,2.92
2023-03-30T13:42:46.744Z,3.15
2023-03-30T13:45:37.566Z,3.90
2023-03-30T13:48:34.874Z,3.33
2023-03-30T13:51:03.890Z,3.42
2023-03-30T13:53:50.307Z,3.78
2023-03-30T13:56:19.055Z,3.70
2023-03-30T13:58:51.427Z,3.80
2023-03-30T14:01:25.471Z,3.63
2023-03-30T14:03:59.474Z,3.65
2023-03-30T14:06:31.869Z,3.65
2023-03-30T14:09:06.903Z,3.38
2023-03-30T14:11:39.987Z,2.25
2023-03-30T14:14:07.624Z,2.45
2023-03-30T14:16:40.552Z,4.15
2023-03-30T14:19:36.091Z,3.72
2023-03-30T14:22:25.608Z,3.25
2023-03-30T14:25:04.942Z,3.92
2023-03-30T14:27:38.620Z,2.88
2023-03-30T14:30:25.248Z,2.97
2023-03-30T14:33:12.825Z,3.75
2023-03-30T14:38:30.050Z,2.50
2023-03-30T14:40:57.158Z,3.47
2023-03-30T14:43:27.268Z,3.90
2023-03-30T14:46:00.837Z,2.90
2023-03-30T14:48:36.244Z,3.03
2023-03-30T14:51:04.269Z,2.47
2023-03-30T14:53:34.091Z,3.00
2023-03-30T14:56:01.540Z,3.28
2023-03-30T14:58:31.715Z,3.05
2023-03-30T15:01:09.252Z,3.28
2023-03-30T15:03:39.781Z,3.45
2023-03-30T15:06:13.169Z,3.03
2023-03-30T15:08:40.782Z,3.25
2023-03-30T15:11:14.382Z,3.00
2023-03-30T15:13:49.596Z,2.83
2023-03-30T15:16:21.646Z,3.30
2023-03-30T15:18:48.844Z,3.03
2023-03-30T15:21:15.699Z,4.60
2023-03-30T15:23:49.313Z,2.90
2023-03-30T15:26:21.330Z,2.90
2023-03-30T15:28:53.576Z,2.85
2023-03-30T15:31:25.777Z,2.72
2023-03-30T15:33:57.718Z,3.58
2023-03-30T15:36:40.971Z,3.67
2023-03-30T15:39:48.340Z,3.65
2023-03-30T15:42:33.557Z,4.20
2023-03-30T15:45:09.833Z,4.05
2023-03-30T15:47:36.482Z,6.57
2023-03-30T15:50:11.838Z,6.63
2023-03-30T15:52:45.876Z,8.98
2023-03-30T15:55:21.109Z,24.65
2023-03-30T15:57:51.354Z,32.72
2023-03-30T16:00:21.426Z,15.57
2023-03-30T16:02:50.591Z,23.23
2023-03-30T16:05:20.873Z,19.30
2023-03-30T16:07:48.266Z,6.07
2023-03-30T16:10:20.907Z,3.53
2023-03-30T16:12:50.458Z,4.13
2023-03-30T16:15:21.183Z,2.65
2023-03-30T16:17:51.119Z,3.30
2023-03-30T16:20:22.042Z,4.25
2023-03-30T16:22:50.213Z,4.43
2023-03-30T16:25:18.874Z,8.05
2023-03-30T16:27:46.109Z,14.80
2023-03-30T16:30:24.213Z,7.22
2023-03-30T16:32:50.799Z,4.47
2023-03-30T16:35:17.441Z,6.57
2023-03-30T16:37:48.723Z,6.00
2023-03-30T16:40:39.425Z,4.25
2023-03-30T16:43:09.570Z,3.42
2023-03-30T16:45:38.481Z,4.82
2023-03-30T16:48:07.587Z,2.83
2023-03-30T16:50:40.948Z,4.10
2023-03-30T16:53:11.047Z,4.35
2023-03-30T16:55:40.659Z,5.35
2023-03-30T16:58:08.911Z,4.10
2023-03-30T17:00:43.041Z,4.10
2023-03-30T17:03:12.198Z,4.13
2023-03-30T17:05:39.629Z,3.58
2023-03-30T17:08:14.314Z,2.47
2023-03-30T17:10:41.093Z,2.92
2023-03-30T17:13:08.275Z,3.15
2023-03-30T17:15:38.423Z,2.50
2023-03-30T17:18:09.073Z,3.58
2023-03-30T17:20:48.292Z,2.65
2023-03-30T17:23:24.671Z,4.05
2023-03-30T17:25:54.980Z,3.35
2023-03-30T17:28:25.501Z,3.22
2023-03-30T17:30:57.009Z,2.70
2023-03-30T17:33:26.360Z,2.60
2023-03-30T17:36:01.762Z,3.78
2023-03-30T17:38:30.799Z,3.00
2023-03-30T17:40:57.386Z,3.25
2023-03-30T17:43:23.911Z,2.25
2023-03-30T17:45:53.136Z,3.08
2023-03-30T17:48:23.067Z,3.40
2023-03-30T17:50:52.186Z,2.20
2023-03-30T17:53:20.655Z,2.13
2023-03-30T17:55:52.793Z,2.67
2023-03-30T17:58:23.992Z,2.30
2023-03-30T18:00:52.221Z,3.20
2023-03-30T18:03:23.418Z,2.55
2023-03-30T18:08:25.686Z,2.17
2023-03-30T18:11:00.194Z,2.63
2023-03-30T18:13:28.534Z,2.42
2023-03-30T18:15:56.768Z,4.07
2023-03-30T18:18:30.972Z,3.00
2023-03-30T18:21:04.282Z,3.15
2023-03-30T18:23:35.114Z,2.47
2023-03-30T18:26:02.258Z,2.70
2023-03-30T18:28:35.420Z,2.23
2023-03-30T18:31:02.109Z,4.82
2023-03-30T18:33:28.724Z,3.15
2023-03-30T18:35:57.820Z,2.50
2023-03-30T18:38:29.254Z,3.10
2023-03-30T18:40:57.914Z,2.78
2023-03-30T18:43:29.704Z,2.90
2023-03-30T18:46:01.065Z,2.67
2023-03-30T18:48:29.240Z,3.65
2023-03-30T18:50:58.966Z,2.67
2023-03-30T18:53:27.645Z,3.05
2023-03-30T18:56:00.232Z,2.92
2023-03-30T18:58:29.616Z,3.15
2023-03-30T19:00:56.775Z,3.10
2023-03-30T19:03:25.238Z,3.37
2023-03-30T19:05:54.121Z,2.88
2023-03-30T19:08:25.424Z,4.07
2023-03-30T19:10:57.059Z,3.80
2023-03-30T19:13:28.424Z,3.63
2023-03-30T19:15:55.459Z,3.78
2023-03-30T19:18:22.352Z,3.58
2023-03-30T19:20:50.834Z,4.68
2023-03-30T19:23:18.010Z,3.42
2023-03-30T19:25:44.984Z,2.88
2023-03-30T19:28:12.969Z,3.00
2023-03-30T19:33:13.157Z,3.17
2023-03-30T19:35:40.902Z,3.15
2023-03-30T19:38:12.242Z,3.80
2023-03-30T19:40:42.573Z,2.80
2023-03-30T19:43:09.695Z,3.58
2023-03-30T19:45:44.340Z,3.88
2023-03-30T19:48:15.406Z,4.07
2023-03-30T19:50:44.521Z,3.15
2023-03-30T19:53:10.991Z,3.20
2023-03-30T19:55:40.190Z,2.80
2023-03-30T19:58:06.804Z,2.92
2023-03-30T20:00:34.860Z,3.03
2023-03-30T20:05:33.112Z,3.08
2023-03-30T20:08:07.964Z,3.08
2023-03-30T20:10:48.072Z,3.70
2023-03-30T20:13:16.539Z,2.83
2023-03-30T20:15:46.179Z,3.38
2023-03-30T20:18:14.140Z,3.40
2023-03-30T20:20:44.009Z,3.50
2023-03-30T20:23:10.501Z,2.70
2023-03-30T20:25:44.663Z,3.10
2023-03-30T20:28:13.583Z,3.22
2023-03-30T20:30:40.277Z,2.75
2023-03-30T20:33:11.429Z,3.58
2023-03-30T20:35:41.784Z,2.78
2023-03-30T20:38:08.628Z,2.70
2023-03-30T20:40:35.216Z,2.78
2023-03-30T20:43:09.778Z,3.15
2023-03-30T20:45:48.481Z,3.08
2023-03-30T20:48:27.133Z,3.20
2023-03-30T20:50:55.453Z,2.97
2023-03-30T20:53:22.968Z,3.80
2023-03-30T20:55:51.704Z,2.38
2023-03-30T20:58:22.362Z,2.50
2023-03-30T21:00:51.958Z,2.70
2023-03-30T21:03:21.517Z,2.70
2023-03-30T21:05:59.326Z,3.00
2023-03-30T21:08:28.994Z,3.17
2023-03-30T21:10:57.986Z,3.28
2023-03-30T21:13:27.110Z,3.33
2023-03-30T21:16:11.916Z,2.38
2023-03-30T21:18:38.431Z,2.33
2023-03-30T21:21:06.033Z,2.75
2023-03-30T21:23:39.897Z,2.63
2023-03-30T21:26:08.336Z,2.50
2023-03-30T21:28:38.286Z,2.85
2023-03-30T21:31:09.155Z,2.45
2023-03-30T21:33:39.863Z,2.22
2023-03-30T21:36:07.698Z,2.28
2023-03-30T21:38:35.648Z,2.97
2023-03-30T21:41:04.580Z,2.70
2023-03-30T21:43:33.732Z,2.15
2023-03-30T21:46:05.907Z,3.10
2023-03-30T21:48:35.234Z,2.35
2023-03-30T21:51:16.699Z,2.83
2023-03-30T21:53:45.442Z,2.60
2023-03-30T21:56:12.701Z,2.78
2023-03-30T21:58:42.003Z,2.90
2023-03-30T22:01:12.255Z,2.58
2023-03-30T22:03:44.807Z,2.72
2023-03-30T22:06:16.249Z,2.85
2023-03-30T22:08:46.864Z,2.53
2023-03-30T22:11:31.754Z,2.85
2023-03-30T22:14:00.456Z,2.70
2023-03-30T22:16:33.473Z,2.47
2023-03-30T22:19:02.962Z,3.08
2023-03-30T22:21:34.468Z,2.60
2023-03-30T22:24:03.486Z,1.88
2023-03-30T22:26:30.857Z,2.67
2023-03-30T22:28:57.402Z,2.37
2023-03-30T22:31:26.588Z,2.67
2023-03-30T22:33:56.303Z,2.60
2023-03-30T22:36:25.354Z,2.83
2023-03-30T22:38:56.012Z,2.75
2023-03-30T22:41:26.553Z,2.72
2023-03-30T22:43:56.032Z,2.47
2023-03-30T22:46:24.931Z,2.60
2023-03-30T22:48:55.731Z,2.28
2023-03-30T22:51:28.752Z,2.78
2023-03-30T22:53:59.731Z,2.63
2023-03-30T22:56:28.535Z,3.45
2023-03-30T22:58:55.850Z,2.63
2023-03-30T23:01:24.722Z,2.50
2023-03-30T23:03:54.428Z,2.90
2023-03-30T23:06:24.085Z,1.90
2023-03-30T23:08:55.413Z,3.10
2023-03-30T23:11:22.366Z,2.50
2023-03-30T23:13:50.218Z,2.22
2023-03-30T23:16:16.730Z,3.03
2023-03-30T23:18:43.258Z,2.45
2023-03-30T23:21:11.461Z,2.53
2023-03-30T23:23:43.494Z,2.65
2023-03-30T23:26:11.280Z,1.73
2023-03-30T23:28:40.388Z,2.42
2023-03-30T23:31:12.304Z,3.15
2023-03-30T23:33:39.373Z,2.40
2023-03-30T23:36:06.689Z,2.50
2023-03-30T23:38:38.572Z,2.58
2023-03-30T23:41:08.476Z,2.72
2023-03-30T23:43:40.372Z,2.28
2023-03-30T23:46:07.058Z,2.55
2023-03-30T23:48:33.696Z,2.08
2023-03-30T23:51:00.349Z,2.67
2023-03-30T23:53:27.115Z,2.40
2023-03-30T23:55:58.181Z,2.60
2023-03-30T23:58:26.363Z,2.30
